Terminal Aerodrome Forecast
Issued by NWS

Home | Current Version | Previous Version | Text Only | Print | Product List | Glossary On
Versions: 1 2 3 4 5 6 7 8 9 10 11 12 13 14 15 16 17 18 19 20 21 22 23 24 25 26 27 28 29 30 31 32 33 34 35 36 37 38 39 40
000
FTUS44 KFWD 240320 AAC
TAFGKY
TAF AMD
KGKY 240320Z 2403/2424 13014KT 6SM -RA BR SCT007 BKN015
     FM240400 13014KT 6SM -RA BR SCT007 BKN025
      TEMPO 2406/2410 2SM TSRA BR OVC012CB
     FM241500 16016KT 4SM TSRA BR OVC014CB
     FM241800 17018KT P6SM VCSH BKN014
      TEMPO 2418/2421 6SM -SHRA BR OVC025
     FM242100 17014KT P6SM BKN050=

USA.gov is the U.S. government's official web portal to all federal, state and local government web resources and services.